Time;durP1;ratioP1;P1;durP2;ratioP2;P2;SDS_P1;SDS_P2;PMS_P1;PMS_P2;Temp;Humidity;BMP_temperature;BMP_pressure;BME280_temperature;BME280_humidity;BME280_pressure;Samples;Min_cycle;Max_cycle;Signal;HPM_P1;HPM_P2
2022/05/06 00:02:27;;;;;;;24.53;18.33;;;13.30;99.90;;;;;;5084550;28;20648;-85
2022/05/06 00:04:53;;;;;;;17.73;15.97;;;13.30;99.90;;;;;;5084000;28;20627;-85
2022/05/06 00:07:21;;;;;;;16.30;14.80;;;13.30;99.90;;;;;;5083685;28;20635;-85
2022/05/06 00:09:48;;;;;;;18.70;16.90;;;13.30;99.90;;;;;;5082759;28;20644;-84
2022/05/06 00:12:18;;;;;;;18.87;16.87;;;13.30;99.90;;;;;;5081297;28;20605;-84
2022/05/06 00:14:46;;;;;;;18.93;17.17;;;13.30;99.90;;;;;;5083653;28;20667;-84
2022/05/06 00:17:13;;;;;;;19.00;17.03;;;12.90;99.90;;;;;;5083114;28;20632;-84
2022/05/06 00:19:41;;;;;;;20.83;18.60;;;13.10;99.90;;;;;;5082922;28;20670;-85
2022/05/06 00:22:08;;;;;;;18.77;16.90;;;13.40;99.90;;;;;;5078719;28;20755;-84
2022/05/06 00:24:37;;;;;;;21.43;17.80;;;13.30;99.90;;;;;;5081703;28;20646;-84
2022/05/06 00:27:04;;;;;;;19.57;17.53;;;13.30;99.90;;;;;;5084054;28;20632;-85
2022/05/06 00:29:31;;;;;;;22.07;19.83;;;13.30;99.90;;;;;;5084700;28;20723;-84
2022/05/06 00:31:58;;;;;;;21.00;18.90;;;13.40;99.90;;;;;;5083433;28;20773;-85
2022/05/06 00:34:25;;;;;;;20.57;18.47;;;13.30;99.90;;;;;;5078840;28;20639;-85
2022/05/06 00:36:52;;;;;;;21.70;19.63;;;13.30;99.90;;;;;;5083199;28;20628;-87
2022/05/06 00:39:18;;;;;;;21.00;18.93;;;13.00;99.90;;;;;;5085068;28;20620;-87
2022/05/06 00:41:47;;;;;;;22.43;20.30;;;13.30;99.90;;;;;;5085818;28;20624;-84
2022/05/06 00:44:13;;;;;;;21.53;19.43;;;13.00;99.90;;;;;;5082717;28;21101;-86
2022/05/06 00:46:41;;;;;;;22.07;19.97;;;13.30;99.90;;;;;;5082987;28;20620;-86
2022/05/06 00:49:12;;;;;;;23.10;20.80;;;12.90;99.90;;;;;;5078506;28;20636;-84
2022/05/06 00:51:40;;;;;;;22.87;20.73;;;13.20;99.90;;;;;;5077723;28;21381;-84
2022/05/06 00:54:08;;;;;;;22.83;20.50;;;13.30;99.90;;;;;;5078716;28;20631;-86
2022/05/06 00:56:34;;;;;;;21.87;19.67;;;12.90;99.90;;;;;;5076216;28;20976;-84
2022/05/06 00:59:03;;;;;;;23.00;20.83;;;13.30;99.90;;;;;;5080928;28;20625;-84
2022/05/06 01:01:30;;;;;;;22.13;20.23;;;13.30;99.90;;;;;;5082514;28;20759;-84
2022/05/06 01:03:57;;;;;;;23.63;21.23;;;13.30;99.90;;;;;;5077803;28;20633;-84
2022/05/06 01:06:25;;;;;;;24.70;19.73;;;13.30;99.90;;;;;;5083875;28;20972;-84
2022/05/06 01:08:53;;;;;;;22.33;20.23;;;13.20;99.90;;;;;;5082484;28;20632;-84
2022/05/06 01:11:20;;;;;;;22.97;20.77;;;13.30;99.90;;;;;;5082446;28;20651;-84
2022/05/06 01:13:49;;;;;;;22.83;20.63;;;13.20;99.90;;;;;;5080127;28;21186;-84
2022/05/06 01:16:17;;;;;;;21.93;19.80;;;13.20;99.90;;;;;;5078246;28;20659;-85
2022/05/06 01:18:44;;;;;;;26.10;22.50;;;13.20;99.90;;;;;;5080613;28;20628;-85
2022/05/06 01:21:20;;;;;;;27.20;21.10;;;13.00;99.90;;;;;;5080126;28;20652;-86
2022/05/06 01:23:48;;;;;;;24.37;22.03;;;13.10;99.90;;;;;;5080468;28;20607;-85
2022/05/06 01:26:14;;;;;;;24.90;22.40;;;13.10;99.90;;;;;;5079528;28;20620;-85
2022/05/06 01:28:43;;;;;;;23.83;21.40;;;13.10;99.90;;;;;;5079648;28;20632;-85
2022/05/06 01:31:13;;;;;;;26.13;23.30;;;13.20;99.90;;;;;;5078763;28;21019;-85
2022/05/06 01:33:40;;;;;;;24.03;21.83;;;13.20;99.90;;;;;;5078295;28;20616;-84
2022/05/06 01:36:09;;;;;;;24.00;21.63;;;13.20;99.90;;;;;;5078364;28;21206;-85
2022/05/06 01:38:41;;;;;;;23.50;21.37;;;13.00;99.90;;;;;;5075186;28;20630;-85
2022/05/06 01:41:24;;;;;;;24.93;22.23;;;13.10;99.90;;;;;;5078532;28;20656;-85
2022/05/06 01:43:54;;;;;;;24.03;21.63;;;12.90;99.90;;;;;;5077803;28;20618;-85
2022/05/06 01:46:26;;;;;;;27.77;23.80;;;13.10;99.90;;;;;;5083669;28;20627;-83
2022/05/06 01:48:53;;;;;;;22.40;20.17;;;13.10;99.90;;;;;;5086334;28;21460;-85
2022/05/06 01:51:21;;;;;;;24.63;22.40;;;13.10;99.90;;;;;;5089181;28;21013;-85
2022/05/06 01:53:48;;;;;;;26.23;23.67;;;12.70;99.90;;;;;;5083631;28;20979;-86
2022/05/06 01:56:19;;;;;;;23.23;20.90;;;13.10;99.90;;;;;;5083275;28;20660;-85
2022/05/06 01:58:46;;;;;;;24.23;21.77;;;13.10;99.90;;;;;;5080447;28;20627;-84
2022/05/06 02:01:13;;;;;;;23.87;21.70;;;13.10;99.90;;;;;;5074695;28;20670;-85
2022/05/06 02:06:24;;;;;;;24.67;22.30;;;12.90;99.90;;;;;;5075079;28;20575;-85
2022/05/06 02:08:51;;;;;;;25.70;22.83;;;13.10;99.90;;;;;;5080741;28;20633;-86
2022/05/06 02:11:19;;;;;;;24.43;22.03;;;13.10;99.90;;;;;;5078016;28;21014;-86
2022/05/06 02:13:46;;;;;;;25.97;23.50;;;13.00;99.90;;;;;;5077749;28;20656;-86
2022/05/06 02:16:13;;;;;;;22.77;20.70;;;12.60;99.90;;;;;;5081336;28;20679;-85
2022/05/06 02:18:40;;;;;;;25.17;22.87;;;13.10;99.90;;;;;;5078603;28;20624;-85
2022/05/06 02:21:07;;;;;;;24.03;21.87;;;12.80;99.90;;;;;;5080970;28;20651;-85
2022/05/06 02:23:34;;;;;;;25.80;23.30;;;12.90;99.90;;;;;;5083744;28;20656;-85
2022/05/06 02:26:01;;;;;;;24.10;21.90;;;12.80;99.90;;;;;;5081928;28;20655;-85
2022/05/06 02:28:29;;;;;;;26.20;22.83;;;12.70;99.90;;;;;;5078242;28;21121;-85
2022/05/06 02:33:43;;;;;;;24.10;22.00;;;13.00;99.90;;;;;;5078399;28;20599;-85
2022/05/06 02:36:10;;;;;;;25.37;22.77;;;12.60;99.90;;;;;;5083798;28;20652;-85
2022/05/06 02:38:38;;;;;;;26.47;23.90;;;13.00;99.90;;;;;;5076352;28;20632;-85
2022/05/06 02:41:06;;;;;;;24.27;21.53;;;12.90;99.90;;;;;;5083473;28;21196;-84
2022/05/06 02:43:34;;;;;;;24.10;21.70;;;12.70;99.90;;;;;;5085129;28;20985;-85
2022/05/06 02:46:01;;;;;;;24.23;21.77;;;12.90;99.90;;;;;;5083584;28;21217;-85
2022/05/06 02:48:28;;;;;;;24.50;22.20;;;12.90;99.90;;;;;;5082744;28;20629;-85
2022/05/06 02:50:55;;;;;;;26.30;23.50;;;12.50;99.90;;;;;;5083710;28;20662;-85
2022/05/06 02:53:22;;;;;;;23.70;21.30;;;12.90;99.90;;;;;;5080546;28;20727;-84
2022/05/06 02:55:48;;;;;;;24.43;22.07;;;12.60;99.90;;;;;;5080965;28;20747;-85
2022/05/06 02:58:16;;;;;;;24.90;22.30;;;13.00;99.90;;;;;;5080315;28;21355;-85
2022/05/06 03:00:44;;;;;;;24.60;21.43;;;12.90;99.90;;;;;;5083916;28;20685;-85
2022/05/06 03:03:11;;;;;;;22.57;20.60;;;12.70;99.90;;;;;;5081443;28;21163;-85
2022/05/06 03:05:37;;;;;;;24.43;22.17;;;13.10;99.90;;;;;;5084660;28;20631;-85
2022/05/06 03:08:05;;;;;;;27.77;21.57;;;12.90;99.90;;;;;;5084157;28;20659;-86
2022/05/06 03:10:32;;;;;;;23.70;21.40;;;13.00;99.90;;;;;;5083325;28;21066;-86
2022/05/06 03:12:59;;;;;;;24.30;21.90;;;12.70;99.90;;;;;;5079206;28;20830;-85
2022/05/06 03:15:27;;;;;;;25.60;20.60;;;13.00;99.90;;;;;;5085581;28;20668;-85
2022/05/06 03:17:56;;;;;;;23.83;21.73;;;13.00;99.90;;;;;;5085250;28;20624;-85
2022/05/06 03:20:22;;;;;;;22.27;20.17;;;13.00;99.90;;;;;;5087886;28;21707;-85
2022/05/06 03:22:50;;;;;;;21.40;19.47;;;13.00;99.90;;;;;;5091230;28;20959;-85
2022/05/06 03:25:18;;;;;;;23.80;21.43;;;12.70;99.90;;;;;;5086711;28;20868;-84
2022/05/06 03:30:30;;;;;;;22.63;20.37;;;12.70;99.90;;;;;;5081956;28;20698;-84
2022/05/06 03:32:59;;;;;;;22.50;20.20;;;12.60;99.90;;;;;;5080892;28;20624;-85
2022/05/06 03:35:27;;;;;;;21.13;19.10;;;12.80;99.90;;;;;;5084503;28;20617;-84
2022/05/06 03:37:54;;;;;;;22.43;20.30;;;12.90;99.90;;;;;;5085451;28;20655;-84
2022/05/06 03:40:21;;;;;;;19.77;17.67;;;12.90;99.90;;;;;;5083422;28;20653;-84
2022/05/06 03:42:47;;;;;;;20.73;18.70;;;12.90;99.90;;;;;;5084868;28;20635;-84
2022/05/06 03:45:14;;;;;;;20.77;18.70;;;12.80;99.90;;;;;;5080727;28;20629;-84
2022/05/06 03:47:41;;;;;;;20.30;18.30;;;12.50;99.90;;;;;;5080360;28;20621;-85
2022/05/06 03:52:55;;;;;;;21.70;19.20;;;12.90;99.90;;;;;;5082804;28;20618;-84
2022/05/06 03:55:23;;;;;;;20.17;18.07;;;12.50;99.90;;;;;;5084481;28;20636;-86
2022/05/06 03:57:50;;;;;;;19.67;17.63;;;12.50;99.90;;;;;;5082112;28;20970;-85
2022/05/06 04:00:19;;;;;;;21.17;19.27;;;12.90;99.90;;;;;;5083076;28;20735;-85
2022/05/06 04:02:46;;;;;;;19.97;17.90;;;12.90;99.90;;;;;;5080316;28;20708;-85
2022/05/06 04:05:14;;;;;;;18.60;16.90;;;12.50;99.90;;;;;;5091217;28;20616;-85
2022/05/06 04:07:41;;;;;;;18.50;16.87;;;12.90;99.90;;;;;;5091657;28;20628;-85
2022/05/06 04:10:09;;;;;;;18.23;16.53;;;12.90;99.90;;;;;;5079776;28;21214;-84
2022/05/06 04:12:36;;;;;;;17.07;15.50;;;13.00;99.90;;;;;;5087180;28;20635;-84
2022/05/06 04:15:03;;;;;;;15.87;14.47;;;12.60;99.90;;;;;;5085059;28;20661;-85
2022/05/06 04:17:30;;;;;;;15.63;14.23;;;12.90;99.90;;;;;;5090988;28;20713;-84
2022/05/06 04:25:25;;;;;;;14.53;13.30;;;13.30;99.90;;;;;;5080119;28;20648;-85
2022/05/06 04:27:52;;;;;;;14.77;13.43;;;12.80;99.90;;;;;;5084908;28;21083;-84
2022/05/06 04:30:20;;;;;;;14.17;12.90;;;13.00;99.90;;;;;;5082008;28;20628;-86
2022/05/06 04:32:47;;;;;;;13.53;12.33;;;13.00;99.90;;;;;;5085922;28;20666;-85
2022/05/06 04:35:15;;;;;;;14.97;13.67;;;12.90;99.90;;;;;;5081289;28;21260;-86
2022/05/06 04:37:44;;;;;;;14.90;13.47;;;13.00;99.90;;;;;;5086929;28;21244;-86
2022/05/06 04:40:12;;;;;;;16.17;14.63;;;12.90;99.90;;;;;;5084124;28;20659;-85
2022/05/06 04:42:39;;;;;;;13.87;12.47;;;12.90;99.90;;;;;;5072352;28;20628;-86
2022/05/06 04:45:07;;;;;;;13.87;12.77;;;12.60;99.90;;;;;;5083665;28;20674;-87
2022/05/06 04:47:37;;;;;;;14.23;12.80;;;12.90;99.90;;;;;;5080603;28;21246;-85
2022/05/06 04:50:05;;;;;;;13.10;12.10;;;12.90;99.90;;;;;;5074614;28;21142;-85
2022/05/06 04:52:32;;;;;;;14.50;13.10;;;13.20;99.90;;;;;;5084181;28;20639;-87
2022/05/06 04:55:01;;;;;;;14.63;13.20;;;12.70;99.90;;;;;;5076715;28;20738;-86
2022/05/06 04:57:28;;;;;;;14.20;12.83;;;13.00;99.90;;;;;;5081050;28;20619;-86
2022/05/06 04:59:55;;;;;;;14.63;13.03;;;12.60;99.90;;;;;;5072624;28;20660;-87
2022/05/06 05:02:21;;;;;;;15.10;13.80;;;13.00;99.90;;;;;;5084157;28;20636;-85
2022/05/06 05:04:52;;;;;;;14.80;13.40;;;13.00;99.90;;;;;;5085489;28;20655;-85
2022/05/06 05:07:20;;;;;;;13.97;12.60;;;13.00;99.90;;;;;;5086745;28;21190;-85
2022/05/06 05:09:47;;;;;;;16.27;14.00;;;12.90;99.90;;;;;;5079401;28;21010;-86
2022/05/06 05:12:16;;;;;;;14.27;12.87;;;13.00;99.90;;;;;;5079873;28;20620;-88
2022/05/06 05:14:43;;;;;;;15.10;13.60;;;12.80;99.90;;;;;;5084710;28;21258;-87
2022/05/06 05:17:13;;;;;;;14.80;13.53;;;13.00;99.90;;;;;;5085147;28;20645;-88
2022/05/06 05:19:40;;;;;;;16.60;14.87;;;12.70;99.90;;;;;;5085307;28;20616;-87
2022/05/06 05:22:07;;;;;;;14.73;13.50;;;13.00;99.90;;;;;;5082309;28;20655;-87
2022/05/06 05:24:34;;;;;;;16.43;14.80;;;13.10;99.90;;;;;;5084369;28;20620;-87
2022/05/06 05:27:01;;;;;;;14.60;13.30;;;12.60;99.90;;;;;;5085442;28;20623;-87
2022/05/06 05:29:30;;;;;;;14.20;12.90;;;12.80;99.90;;;;;;5086998;28;20627;-87
2022/05/06 05:31:57;;;;;;;15.07;13.77;;;13.00;99.90;;;;;;5079454;28;20620;-86
2022/05/06 05:34:24;;;;;;;15.13;13.73;;;13.00;99.90;;;;;;5084332;28;20623;-84
2022/05/06 05:36:51;;;;;;;13.73;12.57;;;12.70;99.90;;;;;;5085511;28;21036;-86
2022/05/06 05:39:18;;;;;;;14.67;13.57;;;13.00;99.90;;;;;;5084842;28;20617;-86
2022/05/06 05:41:44;;;;;;;16.10;14.53;;;13.00;99.90;;;;;;5081267;28;20612;-87
2022/05/06 05:49:56;;;;;;;13.70;12.63;;;12.70;99.90;;;;;;5045522;28;20637;-85
2022/05/06 05:52:22;;;;;;;13.13;12.13;;;12.60;99.90;;;;;;5041275;28;20669;-86
2022/05/06 05:54:49;;;;;;;14.47;13.17;;;12.80;99.90;;;;;;5054530;28;20620;-87
2022/05/06 05:57:16;;;;;;;12.60;11.60;;;12.60;99.90;;;;;;5084468;28;20679;-87
2022/05/06 05:59:43;;;;;;;14.33;13.03;;;13.00;99.90;;;;;;5078238;28;20624;-87
2022/05/06 06:02:12;;;;;;;13.70;12.63;;;13.10;99.90;;;;;;5083294;28;20679;-87
2022/05/06 06:04:43;;;;;;;13.37;12.17;;;13.00;99.90;;;;;;5083180;28;20667;-85
2022/05/06 06:07:10;;;;;;;13.53;12.27;;;13.00;99.90;;;;;;5089255;28;21951;-88
2022/05/06 06:09:40;;;;;;;13.43;12.33;;;12.80;99.90;;;;;;5082276;28;21533;-89
2022/05/06 06:12:08;;;;;;;12.50;11.47;;;13.10;99.90;;;;;;5088032;28;20616;-88
2022/05/06 06:14:35;;;;;;;12.80;11.77;;;13.10;99.90;;;;;;5086424;28;20659;-87
2022/05/06 06:17:02;;;;;;;12.13;11.00;;;13.00;99.90;;;;;;5090677;28;20680;-87
2022/05/06 06:19:31;;;;;;;12.80;11.60;;;12.70;99.90;;;;;;5090422;28;21038;-87
2022/05/06 06:21:58;;;;;;;12.33;11.23;;;13.10;99.90;;;;;;5101499;28;21079;-87
2022/05/06 06:24:24;;;;;;;13.47;12.17;;;13.10;99.90;;;;;;5086799;28;20634;-87
2022/05/06 06:26:52;;;;;;;11.47;10.37;;;13.10;99.90;;;;;;5084697;28;20672;-87
2022/05/06 06:29:19;;;;;;;12.37;11.40;;;12.60;99.90;;;;;;5087464;28;20661;-87
2022/05/06 06:31:46;;;;;;;13.03;11.93;;;13.00;99.90;;;;;;5091026;28;20626;-88
2022/05/06 06:34:13;;;;;;;13.67;12.37;;;13.00;99.90;;;;;;5086522;28;20660;-87
2022/05/06 06:36:41;;;;;;;11.90;10.93;;;12.60;99.90;;;;;;5093680;28;20655;-87
2022/05/06 06:39:08;;;;;;;11.87;10.93;;;12.70;99.90;;;;;;5085553;28;20612;-88
2022/05/06 06:41:35;;;;;;;11.53;10.60;;;12.70;99.90;;;;;;5090943;28;20623;-87
2022/05/06 06:44:03;;;;;;;12.63;11.40;;;13.00;99.90;;;;;;5088858;28;20647;-88
2022/05/06 06:46:32;;;;;;;11.53;10.37;;;13.10;99.90;;;;;;5093235;28;20622;-87
2022/05/06 06:48:59;;;;;;;11.47;10.57;;;13.20;99.90;;;;;;5094422;28;20691;-88
2022/05/06 06:51:26;;;;;;;11.80;10.70;;;13.10;99.90;;;;;;5092771;28;20627;-86
2022/05/06 06:53:54;;;;;;;12.50;11.50;;;12.70;99.90;;;;;;5088123;28;21158;-86
2022/05/06 06:56:21;;;;;;;11.20;10.30;;;13.20;99.90;;;;;;5086019;28;20639;-86
2022/05/06 06:58:48;;;;;;;11.83;10.70;;;13.20;99.90;;;;;;5089228;28;20644;-86
2022/05/06 07:01:15;;;;;;;12.00;10.87;;;12.90;99.90;;;;;;5085986;28;20635;-87
2022/05/06 07:03:41;;;;;;;10.63;9.63;;;13.20;99.90;;;;;;5090032;28;21095;-87
2022/05/06 07:11:56;;;;;;;10.03;9.17;;;13.20;99.90;;;;;;5091383;28;20607;-89
2022/05/06 07:14:25;;;;;;;10.67;9.67;;;13.20;99.90;;;;;;5091336;28;20635;-86
2022/05/06 07:16:53;;;;;;;11.00;9.90;;;13.30;99.90;;;;;;5095035;28;20671;-86
2022/05/06 07:19:21;;;;;;;10.10;9.10;;;13.20;99.90;;;;;;5089573;28;20738;-86
2022/05/06 07:21:49;;;;;;;12.87;9.77;;;13.30;99.90;;;;;;5089901;28;20620;-86
2022/05/06 07:24:18;;;;;;;10.67;9.87;;;13.00;99.90;;;;;;5089941;28;20631;-89
2022/05/06 07:26:45;;;;;;;8.87;8.17;;;13.50;99.90;;;;;;5089586;28;20630;-86
2022/05/06 07:29:12;;;;;;;10.40;9.30;;;13.30;99.90;;;;;;5088487;28;20615;-86
2022/05/06 07:31:39;;;;;;;9.37;8.43;;;13.30;99.90;;;;;;5092115;28;20612;-88
2022/05/06 07:34:07;;;;;;;9.50;8.60;;;13.00;99.90;;;;;;5089174;28;20623;-88
2022/05/06 07:36:33;;;;;;;9.50;8.50;;;13.30;99.90;;;;;;5091214;28;20627;-88
2022/05/06 07:39:00;;;;;;;9.10;8.40;;;13.30;99.90;;;;;;5089821;28;20643;-88
2022/05/06 07:41:28;;;;;;;9.90;8.93;;;12.90;99.90;;;;;;5083282;28;21201;-87
2022/05/06 07:43:55;;;;;;;9.60;8.50;;;13.30;99.90;;;;;;5089738;28;20650;-88
2022/05/06 07:46:25;;;;;;;9.80;8.90;;;13.10;99.90;;;;;;5091705;28;20636;-88
2022/05/06 07:48:52;;;;;;;9.93;9.10;;;13.30;99.90;;;;;;5089884;28;20644;-88
2022/05/06 07:51:18;;;;;;;8.87;8.10;;;13.30;99.90;;;;;;5089504;28;21434;-88
2022/05/06 07:53:45;;;;;;;9.13;8.30;;;13.30;99.90;;;;;;5091102;28;20617;-88
2022/05/06 07:56:13;;;;;;;8.20;7.50;;;13.30;99.90;;;;;;5087717;28;20628;-88
2022/05/06 07:58:41;;;;;;;9.77;8.90;;;12.90;99.90;;;;;;5084254;28;20675;-87
2022/05/06 08:01:10;;;;;;;9.17;8.37;;;13.10;99.90;;;;;;5084814;28;20628;-87
2022/05/06 08:06:21;;;;;;;8.77;7.97;;;13.30;99.90;;;;;;5091615;28;20571;-87
2022/05/06 08:08:48;;;;;;;9.60;8.07;;;13.30;99.90;;;;;;5088184;28;20644;-88
2022/05/06 08:11:14;;;;;;;9.17;8.37;;;13.30;99.90;;;;;;5087604;28;21028;-87
2022/05/06 08:13:44;;;;;;;9.30;8.47;;;13.40;99.90;;;;;;5085849;28;21198;-87
2022/05/06 08:16:11;;;;;;;10.17;9.30;;;13.20;99.90;;;;;;5087619;28;20604;-87
2022/05/06 08:18:38;;;;;;;9.63;8.73;;;13.40;99.90;;;;;;5088248;28;20676;-87
2022/05/06 08:21:05;;;;;;;10.97;9.67;;;13.00;99.90;;;;;;5087170;28;20632;-87
2022/05/06 08:23:32;;;;;;;10.63;9.10;;;13.50;99.90;;;;;;5088510;28;20639;-86
2022/05/06 08:26:00;;;;;;;9.00;8.10;;;13.30;99.90;;;;;;5081267;28;20637;-88
2022/05/06 08:28:28;;;;;;;11.03;9.00;;;13.40;99.90;;;;;;5088764;28;20652;-88
2022/05/06 08:30:56;;;;;;;9.57;8.77;;;13.70;99.90;;;;;;5087832;28;20624;-87
2022/05/06 08:33:25;;;;;;;11.73;8.70;;;13.70;99.90;;;;;;5090439;28;20692;-88
2022/05/06 08:35:58;;;;;;;8.90;8.00;;;13.50;99.90;;;;;;5091880;28;21276;-87
2022/05/06 08:38:25;;;;;;;9.10;8.40;;;13.90;99.90;;;;;;5094841;28;20696;-87
2022/05/06 08:40:55;;;;;;;8.97;8.07;;;13.50;99.90;;;;;;5090713;28;20649;-87
2022/05/06 08:43:21;;;;;;;10.20;7.33;;;13.90;99.90;;;;;;5087359;28;20692;-87
2022/05/06 08:51:24;;;;;;;9.10;8.17;;;14.20;99.90;;;;;;5083717;28;20611;-88
2022/05/06 08:53:54;;;;;;;8.40;7.67;;;14.30;99.90;;;;;;5086500;28;21091;-87
2022/05/06 08:56:21;;;;;;;9.10;7.80;;;14.30;99.90;;;;;;5085646;28;20632;-87
2022/05/06 08:58:47;;;;;;;8.33;7.63;;;14.40;99.90;;;;;;5086660;28;20676;-87
2022/05/06 09:01:17;;;;;;;9.20;8.30;;;14.40;99.90;;;;;;5084716;28;20654;-87
2022/05/06 09:03:47;;;;;;;9.17;8.47;;;14.40;99.90;;;;;;5083345;28;20644;-87
2022/05/06 09:06:21;;;;;;;9.60;8.60;;;14.40;99.90;;;;;;5085179;28;20640;-88
2022/05/06 09:08:50;;;;;;;7.83;7.03;;;14.40;99.90;;;;;;5085790;28;20678;-87
2022/05/06 09:12:40;;;;;;;12.33;9.00;;;14.40;99.90;;;;;;5087221;28;20624;-87
2022/05/06 09:14:05;;;;;;;10.60;7.60;;;14.50;99.90;;;;;;5083907;28;20674;-88
2022/05/06 09:16:40;;;;;;;9.30;8.50;;;14.60;99.90;;;;;;5090744;28;21174;-88
2022/05/06 09:19:22;;;;;;;9.70;8.33;;;14.60;99.90;;;;;;5085385;28;20760;-87
2022/05/06 09:22:06;;;;;;;9.10;8.17;;;14.60;99.90;;;;;;5084264;28;20620;-87
2022/05/06 09:24:34;;;;;;;11.87;7.23;;;14.70;99.90;;;;;;5083133;28;20589;-87
2022/05/06 09:27:03;;;;;;;8.27;7.50;;;14.70;99.90;;;;;;5088002;28;20636;-87
2022/05/06 09:29:35;;;;;;;9.37;8.17;;;14.80;99.90;;;;;;5087820;28;20628;-87
2022/05/06 09:32:21;;;;;;;8.23;7.23;;;14.80;99.90;;;;;;5087812;28;20644;-87
2022/05/06 09:34:51;;;;;;;8.77;7.87;;;15.00;99.90;;;;;;5087743;28;20653;-87
2022/05/06 09:37:35;;;;;;;8.00;7.20;;;15.00;99.90;;;;;;5089139;28;21064;-87
2022/05/06 09:40:10;;;;;;;10.80;8.37;;;15.00;99.90;;;;;;5089475;28;20610;-87
2022/05/06 09:42:38;;;;;;;8.53;7.93;;;15.10;99.90;;;;;;5088770;28;20608;-87
2022/05/06 09:45:05;;;;;;;8.17;7.37;;;15.10;99.90;;;;;;5089919;28;20677;-88
2022/05/06 09:47:33;;;;;;;9.03;8.13;;;15.10;99.90;;;;;;5093953;28;20651;-87
2022/05/06 09:50:03;;;;;;;8.10;7.40;;;15.10;99.90;;;;;;5089117;28;20639;-88
2022/05/06 09:52:30;;;;;;;10.07;8.30;;;15.20;99.90;;;;;;5092986;28;20631;-87
2022/05/06 09:54:58;;;;;;;7.73;7.03;;;15.30;99.90;;;;;;5089742;28;20633;-87
2022/05/06 09:57:25;;;;;;;9.50;7.67;;;15.30;99.90;;;;;;5090585;28;20671;-87
2022/05/06 09:59:52;;;;;;;8.23;7.03;;;15.40;99.90;;;;;;5088213;28;20652;-87
2022/05/06 10:02:20;;;;;;;10.80;6.70;;;15.40;99.90;;;;;;5088974;28;20636;-88
2022/05/06 10:04:49;;;;;;;7.23;6.50;;;15.50;99.90;;;;;;5089887;28;20624;-87
2022/05/06 10:07:18;;;;;;;7.87;7.27;;;15.60;99.90;;;;;;5088896;28;20647;-87
2022/05/06 10:09:57;;;;;;;8.00;7.27;;;15.70;99.90;;;;;;5089631;28;20635;-87
2022/05/06 10:12:26;;;;;;;11.57;6.77;;;15.80;99.90;;;;;;5092926;28;20624;-87
2022/05/06 10:14:56;;;;;;;6.70;6.10;;;16.00;99.90;;;;;;5092793;28;20634;-88
2022/05/06 10:17:47;;;;;;;7.60;6.80;;;16.20;99.90;;;;;;5091806;28;21060;-88
2022/05/06 10:20:48;;;;;;;7.80;7.20;;;16.50;99.90;;;;;;5087947;28;20620;-87
2022/05/06 10:23:18;;;;;;;5.97;5.37;;;16.70;99.90;;;;;;5088103;28;20693;-88
2022/05/06 10:25:54;;;;;;;6.13;5.73;;;17.10;99.90;;;;;;5086520;28;20612;-87
2022/05/06 10:34:35;;;;;;;6.70;6.20;;;17.70;99.90;;;;;;5085862;28;20620;-88
2022/05/06 10:37:14;;;;;;;8.40;5.97;;;17.90;99.90;;;;;;5083405;28;20983;-87
2022/05/06 10:39:42;;;;;;;7.07;6.47;;;18.00;99.90;;;;;;5089412;28;20667;-88
2022/05/06 10:42:11;;;;;;;7.30;5.00;;;18.30;99.90;;;;;;5090181;28;20657;-87
2022/05/06 10:44:39;;;;;;;6.70;6.20;;;18.70;99.90;;;;;;5090802;28;20627;-88
2022/05/06 10:47:40;;;;;;;8.10;6.97;;;19.00;99.90;;;;;;5090736;28;20647;-88
2022/05/06 10:50:15;;;;;;;8.47;5.80;;;19.30;99.90;;;;;;5092155;28;20658;-87
2022/05/06 10:52:45;;;;;;;6.10;5.07;;;19.30;99.90;;;;;;5090608;28;20628;-88
2022/05/06 10:55:19;;;;;;;6.10;5.17;;;19.50;99.90;;;;;;5092682;28;20612;-88
2022/05/06 10:58:00;;;;;;;6.33;4.70;;;19.80;99.90;;;;;;5092712;28;20770;-89
2022/05/06 11:00:29;;;;;;;5.50;4.97;;;20.10;99.90;;;;;;5090917;28;21241;-88
2022/05/06 11:02:58;;;;;;;10.37;5.90;;;20.30;99.30;;;;;;5090619;28;20799;-88
2022/05/06 11:05:29;;;;;;;5.93;5.40;;;20.30;98.30;;;;;;5088005;28;20999;-87
2022/05/06 11:07:58;;;;;;;6.40;4.10;;;20.20;97.40;;;;;;5089271;28;20648;-88
2022/05/06 11:10:29;;;;;;;5.00;4.53;;;20.50;99.90;;;;;;5085963;28;20639;-87
2022/05/06 11:12:58;;;;;;;5.87;5.37;;;20.80;98.70;;;;;;5085735;28;21245;-88
2022/05/06 11:15:28;;;;;;;4.40;4.00;;;21.00;95.20;;;;;;5086865;28;20624;-88
2022/05/06 11:17:57;;;;;;;5.60;5.10;;;21.10;97.90;;;;;;5085466;28;20699;-88
2022/05/06 11:20:27;;;;;;;5.20;4.80;;;21.20;93.80;;;;;;5081842;28;20774;-89
2022/05/06 11:22:55;;;;;;;8.60;5.07;;;21.50;94.30;;;;;;5087318;28;21256;-88
2022/05/06 11:25:23;;;;;;;5.40;5.00;;;21.80;93.80;;;;;;5088531;28;20638;-88
2022/05/06 11:27:52;;;;;;;6.27;5.67;;;22.00;92.90;;;;;;5084133;28;20651;-88
2022/05/06 11:30:20;;;;;;;5.20;4.90;;;22.20;92.40;;;;;;5086711;28;20638;-88
2022/05/06 11:32:49;;;;;;;5.57;5.07;;;22.60;91.90;;;;;;5084375;28;21477;-89
2022/05/06 11:35:20;;;;;;;5.27;4.77;;;22.70;91.40;;;;;;5083806;28;21040;-88
2022/05/06 11:37:48;;;;;;;4.73;4.40;;;22.80;88.10;;;;;;5084589;28;20635;-88
2022/05/06 11:40:35;;;;;;;5.90;5.30;;;22.80;87.10;;;;;;5084546;28;20640;-90
2022/05/06 11:43:08;;;;;;;5.77;4.80;;;22.50;88.20;;;;;;5081553;28;20608;-88
2022/05/06 11:48:22;;;;;;;6.10;5.10;;;22.80;87.60;;;;;;5084703;28;20624;-88
2022/05/06 11:50:57;;;;;;;5.83;5.20;;;22.90;85.40;;;;;;5084952;28;20633;-88
2022/05/06 11:53:35;;;;;;;6.10;5.40;;;22.70;82.20;;;;;;5084659;28;21343;-88
2022/05/06 11:56:02;;;;;;;4.57;4.20;;;22.50;82.50;;;;;;5085493;28;20623;-88
2022/05/06 11:58:32;;;;;;;5.93;4.80;;;22.40;82.80;;;;;;5084993;28;20679;-89
2022/05/06 12:00:59;;;;;;;5.30;4.80;;;22.30;86.60;;;;;;5084108;28;20688;-88
2022/05/06 12:03:27;;;;;;;5.53;4.70;;;22.10;86.10;;;;;;5093241;28;20644;-88
2022/05/06 12:06:05;;;;;;;5.73;4.80;;;21.90;87.10;;;;;;5088497;28;20623;-88
2022/05/06 12:08:34;;;;;;;7.43;5.30;;;21.70;87.00;;;;;;5085573;28;20683;-88
2022/05/06 12:11:03;;;;;;;6.53;4.00;;;21.70;82.70;;;;;;5081898;28;20625;-88
2022/05/06 12:13:38;;;;;;;10.60;4.83;;;21.80;86.20;;;;;;5089109;28;20944;-87
2022/05/06 12:16:06;;;;;;;5.40;5.00;;;21.70;88.40;;;;;;5087779;28;20645;-88
2022/05/06 12:18:33;;;;;;;5.00;4.70;;;21.80;85.40;;;;;;5085886;28;21588;-88
2022/05/06 12:21:01;;;;;;;8.00;5.60;;;21.80;87.30;;;;;;5084550;28;20626;-88
2022/05/06 12:23:29;;;;;;;5.10;4.50;;;21.60;84.20;;;;;;5086202;28;21178;-88
2022/05/06 12:25:56;;;;;;;6.00;4.30;;;21.60;83.90;;;;;;5086555;28;20573;-88
2022/05/06 12:28:24;;;;;;;7.40;4.93;;;21.50;85.80;;;;;;5087166;28;20652;-89
2022/05/06 12:30:58;;;;;;;5.30;4.90;;;21.60;88.60;;;;;;5081997;28;20620;-88
2022/05/06 12:33:36;;;;;;;5.43;4.90;;;21.60;87.80;;;;;;5083871;28;20616;-88
2022/05/06 12:36:04;;;;;;;5.33;4.83;;;21.50;84.70;;;;;;5085246;28;20661;-87
2022/05/06 12:38:47;;;;;;;6.13;4.53;;;21.50;86.90;;;;;;5085273;28;20675;-88
2022/05/06 12:41:17;;;;;;;6.13;4.10;;;21.60;87.70;;;;;;5083024;28;20627;-88
2022/05/06 12:43:44;;;;;;;4.50;4.10;;;21.70;86.80;;;;;;5083060;28;20635;-88
2022/05/06 12:46:24;;;;;;;5.40;4.90;;;21.70;85.20;;;;;;5085219;28;20658;-88
2022/05/06 12:51:35;;;;;;;7.23;5.30;;;21.90;86.00;;;;;;5081244;28;21550;-88
2022/05/06 12:54:01;;;;;;;5.33;4.93;;;21.70;79.00;;;;;;5085722;28;20972;-88
2022/05/06 12:56:28;;;;;;;8.63;4.93;;;21.60;80.20;;;;;;5081960;28;20623;-88
2022/05/06 12:58:55;;;;;;;5.20;4.80;;;21.60;81.40;;;;;;5083997;28;20679;-88
2022/05/06 13:01:23;;;;;;;4.73;4.33;;;21.60;85.40;;;;;;5085454;28;20632;-88
2022/05/06 13:03:50;;;;;;;5.40;4.67;;;21.70;86.90;;;;;;5082492;28;20668;-88
2022/05/06 13:06:17;;;;;;;5.20;4.70;;;21.70;80.40;;;;;;5082494;28;20724;-88
2022/05/06 13:08:44;;;;;;;8.00;5.10;;;21.70;80.70;;;;;;5078948;28;20640;-88
2022/05/06 13:11:10;;;;;;;5.10;4.70;;;21.80;81.30;;;;;;5083504;28;20805;-88
2022/05/06 13:13:38;;;;;;;6.90;5.23;;;21.80;77.80;;;;;;5083536;28;21000;-88
2022/05/06 13:16:05;;;;;;;4.70;4.30;;;21.70;79.20;;;;;;5085403;28;21207;-88
2022/05/06 13:18:33;;;;;;;5.50;5.00;;;21.80;78.60;;;;;;5081180;28;20671;-88
2022/05/06 13:20:59;;;;;;;5.83;5.23;;;21.70;78.70;;;;;;5079173;28;20631;-88
2022/05/06 13:23:26;;;;;;;5.13;4.70;;;21.70;80.90;;;;;;5084996;28;20685;-89
2022/05/06 13:25:53;;;;;;;5.70;5.17;;;21.80;82.40;;;;;;5082499;28;21573;-88
2022/05/06 13:28:20;;;;;;;5.43;4.93;;;21.80;79.00;;;;;;5086243;28;20659;-88
2022/05/06 13:30:48;;;;;;;6.17;4.50;;;21.80;76.80;;;;;;5089469;28;20681;-88
2022/05/06 13:33:14;;;;;;;5.07;4.67;;;21.80;76.00;;;;;;5089492;28;20616;-88